Hovedside
METAR-TAF:

METAR-TAF

Lufthavner :

Mitiga International Airport

Tripoli, Libya

breddegrad: 32-54N, lengdegrad: 13-17E, høyde over havet: 11 m

Gjeldene værobservasjon

Denne rapporten ble laget for 1 time og 4 minutter siden, klokken 14:50 UTC
Vind 7 kt fra Nord-nordvest
Temperatur 25°C
Luftfuktighet 65%
Trykk 1015 hPa
Sikt: 7000 m
Brutte skyer i en høyde av 2500 ft

METAR: HLLM 191450Z 34007KT 7000 BKN025 25/18 Q1015

Tid: 17:54 (15:54 UTC)

Varsel

Denne rapporten ble laget for 4 timer og 54 minutter siden, klokken 11:00 UTC
Varsel gyldig fra 19. klokken 12 UTC til 20. klokken 12 UTC
Vind 10 kt fra Nord-nordvest
Sikt 10 km eller mer
Spredte skyer i en høyde av 3000 ft
Blir
fra 20. klokken 00 UTC til 20. klokken 02 UTC
Vind 2 kt fra skiftende retning
Sikt: 8000 m
Blir
fra 20. klokken 06 UTC til 20. klokken 08 UTC
Vind 10 kt fra Nord-nordøst

TAF: HLLM 191100Z 1912/2012 33010KT 9999 SCT030 BECMG 2000/2002 VRB02KT 8000 BECMG 2006/2008 03010KT

Værobservasjoner og værvarsel for over 4000 flyplasser (METAR- og TAF-rapporter).

Tilgjengelige stasjoner er representert av de røde og gule prikkene på kartet.

Hold musepekeren over prikken for å se navnet på stasjonen.

Klikk så for å se værobservasjoner og -varsler.

For å forandre kartet kan du klikke på den grønne knappen med svart kryss for å zoome inn, på den grønne knappen med strek for å zoome ut, eller på de grønne pilene for å se tilstøtende kart.


METAR-TAF: